sensor_id;sensor_type;location;lat;lon;timestamp;temperature;humidity
22065;DHT22;11197;53.110;8.468;2022-11-25T00:01:29;5.60;99.90
22065;DHT22;11197;53.110;8.468;2022-11-25T00:03:56;5.60;99.90
22065;DHT22;11197;53.110;8.468;2022-11-25T00:06:33;5.60;99.90
22065;DHT22;11197;53.110;8.468;2022-11-25T00:09:09;5.60;99.90
22065;DHT22;11197;53.110;8.468;2022-11-25T00:11:36;5.50;99.90
22065;DHT22;11197;53.110;8.468;2022-11-25T00:14:04;5.60;99.90
22065;DHT22;11197;53.110;8.468;2022-11-25T00:16:30;5.50;99.90
22065;DHT22;11197;53.110;8.468;2022-11-25T00:18:57;5.60;99.90
22065;DHT22;11197;53.110;8.468;2022-11-25T00:21:27;5.60;99.90
22065;DHT22;11197;53.110;8.468;2022-11-25T00:24:01;5.60;99.90
22065;DHT22;11197;53.110;8.468;2022-11-25T00:26:31;5.50;99.90
22065;DHT22;11197;53.110;8.468;2022-11-25T00:28:59;5.50;99.90
22065;DHT22;11197;53.110;8.468;2022-11-25T00:31:28;5.50;99.90
22065;DHT22;11197;53.110;8.468;2022-11-25T00:33:54;5.50;99.90
22065;DHT22;11197;53.110;8.468;2022-11-25T00:36:34;5.60;99.90
22065;DHT22;11197;53.110;8.468;2022-11-25T00:39:05;5.50;99.90
22065;DHT22;11197;53.110;8.468;2022-11-25T00:41:31;5.60;99.90
22065;DHT22;11197;53.110;8.468;2022-11-25T00:44:17;5.50;99.90
22065;DHT22;11197;53.110;8.468;2022-11-25T00:47:17;5.50;99.90
22065;DHT22;11197;53.110;8.468;2022-11-25T00:49:52;5.50;99.90
22065;DHT22;11197;53.110;8.468;2022-11-25T00:52:22;5.60;99.90
22065;DHT22;11197;53.110;8.468;2022-11-25T00:54:49;5.60;99.90
22065;DHT22;11197;53.110;8.468;2022-11-25T00:57:17;5.60;99.90
22065;DHT22;11197;53.110;8.468;2022-11-25T00:59:44;5.60;99.90
22065;DHT22;11197;53.110;8.468;2022-11-25T01:02:11;5.60;99.90
22065;DHT22;11197;53.110;8.468;2022-11-25T01:04:38;5.60;99.90
22065;DHT22;11197;53.110;8.468;2022-11-25T01:07:05;5.50;99.90
22065;DHT22;11197;53.110;8.468;2022-11-25T01:09:33;5.50;99.90
22065;DHT22;11197;53.110;8.468;2022-11-25T01:11:59;5.60;99.90
22065;DHT22;11197;53.110;8.468;2022-11-25T01:14:26;5.60;99.90
22065;DHT22;11197;53.110;8.468;2022-11-25T01:16:52;5.50;99.90
22065;DHT22;11197;53.110;8.468;2022-11-25T01:19:19;5.50;99.90
22065;DHT22;11197;53.110;8.468;2022-11-25T01:21:45;5.50;99.90
22065;DHT22;11197;53.110;8.468;2022-11-25T01:24:13;5.50;99.90
22065;DHT22;11197;53.110;8.468;2022-11-25T01:26:41;5.50;99.90
22065;DHT22;11197;53.110;8.468;2022-11-25T01:29:15;5.50;99.90
22065;DHT22;11197;53.110;8.468;2022-11-25T01:31:47;5.50;99.90
22065;DHT22;11197;53.110;8.468;2022-11-25T01:34:16;5.50;99.90
22065;DHT22;11197;53.110;8.468;2022-11-25T01:36:42;5.50;99.90
22065;DHT22;11197;53.110;8.468;2022-11-25T01:39:16;5.50;99.90
22065;DHT22;11197;53.110;8.468;2022-11-25T01:41:43;5.60;99.90
22065;DHT22;11197;53.110;8.468;2022-11-25T01:44:15;5.50;99.90
22065;DHT22;11197;53.110;8.468;2022-11-25T01:46:49;5.50;99.90
22065;DHT22;11197;53.110;8.468;2022-11-25T01:49:26;5.50;99.90
22065;DHT22;11197;53.110;8.468;2022-11-25T01:55:01;5.60;99.90
22065;DHT22;11197;53.110;8.468;2022-11-25T01:57:41;5.50;99.90
22065;DHT22;11197;53.110;8.468;2022-11-25T02:00:09;5.60;99.90
22065;DHT22;11197;53.110;8.468;2022-11-25T02:02:45;5.60;99.90
22065;DHT22;11197;53.110;8.468;2022-11-25T02:05:15;5.60;99.90
22065;DHT22;11197;53.110;8.468;2022-11-25T02:07:44;5.60;99.90
22065;DHT22;11197;53.110;8.468;2022-11-25T02:10:17;5.60;99.90
22065;DHT22;11197;53.110;8.468;2022-11-25T02:12:45;5.60;99.90
22065;DHT22;11197;53.110;8.468;2022-11-25T02:15:12;5.60;99.90
22065;DHT22;11197;53.110;8.468;2022-11-25T02:17:39;5.60;99.90
22065;DHT22;11197;53.110;8.468;2022-11-25T02:20:11;5.60;99.90
22065;DHT22;11197;53.110;8.468;2022-11-25T02:25:44;5.60;99.90
22065;DHT22;11197;53.110;8.468;2022-11-25T02:28:25;5.60;99.90
22065;DHT22;11197;53.110;8.468;2022-11-25T02:30:52;5.70;99.90
22065;DHT22;11197;53.110;8.468;2022-11-25T02:33:19;5.60;99.90
22065;DHT22;11197;53.110;8.468;2022-11-25T02:35:58;5.60;99.90
22065;DHT22;11197;53.110;8.468;2022-11-25T02:38:48;5.70;99.90
22065;DHT22;11197;53.110;8.468;2022-11-25T02:43:46;5.70;99.90
22065;DHT22;11197;53.110;8.468;2022-11-25T02:46:15;5.80;99.90
22065;DHT22;11197;53.110;8.468;2022-11-25T02:48:44;5.80;99.90
22065;DHT22;11197;53.110;8.468;2022-11-25T02:51:13;5.80;99.90
22065;DHT22;11197;53.110;8.468;2022-11-25T02:53:39;5.80;99.90
22065;DHT22;11197;53.110;8.468;2022-11-25T02:56:06;5.90;99.90
22065;DHT22;11197;53.110;8.468;2022-11-25T02:58:34;5.80;99.90
22065;DHT22;11197;53.110;8.468;2022-11-25T03:01:00;5.90;99.90
22065;DHT22;11197;53.110;8.468;2022-11-25T03:03:26;5.90;99.90
22065;DHT22;11197;53.110;8.468;2022-11-25T03:05:52;5.90;99.90
22065;DHT22;11197;53.110;8.468;2022-11-25T03:08:19;6.00;99.90
22065;DHT22;11197;53.110;8.468;2022-11-25T03:10:45;6.00;99.90
22065;DHT22;11197;53.110;8.468;2022-11-25T03:13:12;6.00;99.90
22065;DHT22;11197;53.110;8.468;2022-11-25T03:15:38;6.00;99.90
22065;DHT22;11197;53.110;8.468;2022-11-25T03:18:05;6.00;99.90
22065;DHT22;11197;53.110;8.468;2022-11-25T03:20:33;6.10;99.90
22065;DHT22;11197;53.110;8.468;2022-11-25T03:23:04;6.10;99.90
22065;DHT22;11197;53.110;8.468;2022-11-25T03:25:30;6.10;99.90
22065;DHT22;11197;53.110;8.468;2022-11-25T03:27:57;6.10;99.90
22065;DHT22;11197;53.110;8.468;2022-11-25T03:30:25;6.10;99.90
22065;DHT22;11197;53.110;8.468;2022-11-25T03:32:55;6.20;99.90
22065;DHT22;11197;53.110;8.468;2022-11-25T03:35:24;6.10;99.90
22065;DHT22;11197;53.110;8.468;2022-11-25T03:37:50;6.10;99.90
22065;DHT22;11197;53.110;8.468;2022-11-25T03:40:17;6.10;99.90
22065;DHT22;11197;53.110;8.468;2022-11-25T03:42:44;6.20;99.90
22065;DHT22;11197;53.110;8.468;2022-11-25T03:45:12;6.10;99.90
22065;DHT22;11197;53.110;8.468;2022-11-25T03:47:41;6.20;99.90
22065;DHT22;11197;53.110;8.468;2022-11-25T03:50:08;6.20;99.90
22065;DHT22;11197;53.110;8.468;2022-11-25T03:52:35;6.20;99.90
22065;DHT22;11197;53.110;8.468;2022-11-25T03:55:01;6.20;99.90
22065;DHT22;11197;53.110;8.468;2022-11-25T03:57:31;6.20;99.90
22065;DHT22;11197;53.110;8.468;2022-11-25T03:59:58;6.20;99.90
22065;DHT22;11197;53.110;8.468;2022-11-25T04:02:29;6.20;99.90
22065;DHT22;11197;53.110;8.468;2022-11-25T04:05:14;6.30;99.90
22065;DHT22;11197;53.110;8.468;2022-11-25T04:07:40;6.30;99.90
22065;DHT22;11197;53.110;8.468;2022-11-25T04:10:07;6.30;99.90
22065;DHT22;11197;53.110;8.468;2022-11-25T04:12:34;6.30;99.90
22065;DHT22;11197;53.110;8.468;2022-11-25T04:15:17;6.30;99.90
22065;DHT22;11197;53.110;8.468;2022-11-25T04:17:47;6.30;99.90
22065;DHT22;11197;53.110;8.468;2022-11-25T04:20:13;6.30;99.90
22065;DHT22;11197;53.110;8.468;2022-11-25T04:22:42;6.30;99.90
22065;DHT22;11197;53.110;8.468;2022-11-25T04:25:09;6.40;99.90
22065;DHT22;11197;53.110;8.468;2022-11-25T04:27:35;6.40;99.90
22065;DHT22;11197;53.110;8.468;2022-11-25T04:30:01;6.40;99.90
22065;DHT22;11197;53.110;8.468;2022-11-25T04:32:28;6.40;99.90
22065;DHT22;11197;53.110;8.468;2022-11-25T04:34:54;6.40;99.90
22065;DHT22;11197;53.110;8.468;2022-11-25T04:37:20;6.40;99.90
22065;DHT22;11197;53.110;8.468;2022-11-25T04:39:47;6.40;99.90
22065;DHT22;11197;53.110;8.468;2022-11-25T04:42:16;6.40;99.90
22065;DHT22;11197;53.110;8.468;2022-11-25T04:45:05;6.40;99.90
22065;DHT22;11197;53.110;8.468;2022-11-25T04:47:31;6.40;99.90
22065;DHT22;11197;53.110;8.468;2022-11-25T04:49:57;6.40;99.90
22065;DHT22;11197;53.110;8.468;2022-11-25T04:52:24;6.40;99.90
22065;DHT22;11197;53.110;8.468;2022-11-25T04:54:51;6.40;99.90
22065;DHT22;11197;53.110;8.468;2022-11-25T04:57:17;6.40;99.90
22065;DHT22;11197;53.110;8.468;2022-11-25T04:59:44;6.40;99.90
22065;DHT22;11197;53.110;8.468;2022-11-25T05:02:21;6.40;99.90
22065;DHT22;11197;53.110;8.468;2022-11-25T05:04:58;6.40;99.90
22065;DHT22;11197;53.110;8.468;2022-11-25T05:07:26;6.40;99.90
22065;DHT22;11197;53.110;8.468;2022-11-25T05:09:55;6.40;99.90
22065;DHT22;11197;53.110;8.468;2022-11-25T05:12:32;6.40;99.90
22065;DHT22;11197;53.110;8.468;2022-11-25T05:14:59;6.40;99.90
22065;DHT22;11197;53.110;8.468;2022-11-25T05:17:30;6.40;99.90
22065;DHT22;11197;53.110;8.468;2022-11-25T05:19:58;6.40;99.90
22065;DHT22;11197;53.110;8.468;2022-11-25T05:22:28;6.40;99.90
22065;DHT22;11197;53.110;8.468;2022-11-25T05:24:55;6.40;99.90
22065;DHT22;11197;53.110;8.468;2022-11-25T05:27:21;6.40;99.90
22065;DHT22;11197;53.110;8.468;2022-11-25T05:29:48;6.40;99.90
22065;DHT22;11197;53.110;8.468;2022-11-25T05:32:14;6.40;99.90
22065;DHT22;11197;53.110;8.468;2022-11-25T05:34:42;6.40;99.90
22065;DHT22;11197;53.110;8.468;2022-11-25T05:37:09;6.40;99.90
22065;DHT22;11197;53.110;8.468;2022-11-25T05:39:38;6.40;99.90
22065;DHT22;11197;53.110;8.468;2022-11-25T05:42:22;6.40;99.90
22065;DHT22;11197;53.110;8.468;2022-11-25T05:44:48;6.40;99.90
22065;DHT22;11197;53.110;8.468;2022-11-25T05:47:14;6.50;99.90
22065;DHT22;11197;53.110;8.468;2022-11-25T05:49:41;6.40;99.90
22065;DHT22;11197;53.110;8.468;2022-11-25T05:52:07;6.40;99.90
22065;DHT22;11197;53.110;8.468;2022-11-25T05:54:40;6.40;99.90
22065;DHT22;11197;53.110;8.468;2022-11-25T05:57:07;6.40;99.90
22065;DHT22;11197;53.110;8.468;2022-11-25T05:59:49;6.50;99.90
22065;DHT22;11197;53.110;8.468;2022-11-25T06:02:39;6.50;99.90
22065;DHT22;11197;53.110;8.468;2022-11-25T06:05:05;6.50;99.90
22065;DHT22;11197;53.110;8.468;2022-11-25T06:07:32;6.50;99.90
22065;DHT22;11197;53.110;8.468;2022-11-25T06:09:58;6.50;99.90
22065;DHT22;11197;53.110;8.468;2022-11-25T06:12:24;6.50;99.90
22065;DHT22;11197;53.110;8.468;2022-11-25T06:14:50;6.60;99.90
22065;DHT22;11197;53.110;8.468;2022-11-25T06:17:16;6.50;99.90
22065;DHT22;11197;53.110;8.468;2022-11-25T06:19:50;6.60;99.90
22065;DHT22;11197;53.110;8.468;2022-11-25T06:22:16;6.60;99.90
22065;DHT22;11197;53.110;8.468;2022-11-25T06:24:43;6.60;99.90
22065;DHT22;11197;53.110;8.468;2022-11-25T06:27:09;6.60;99.90
22065;DHT22;11197;53.110;8.468;2022-11-25T06:29:35;6.60;99.90
22065;DHT22;11197;53.110;8.468;2022-11-25T06:32:02;6.60;99.90
22065;DHT22;11197;53.110;8.468;2022-11-25T06:34:48;6.60;99.90
22065;DHT22;11197;53.110;8.468;2022-11-25T06:37:35;6.60;99.90
22065;DHT22;11197;53.110;8.468;2022-11-25T06:40:01;6.60;99.90
22065;DHT22;11197;53.110;8.468;2022-11-25T06:42:28;6.60;99.90
22065;DHT22;11197;53.110;8.468;2022-11-25T06:44:54;6.70;99.90
22065;DHT22;11197;53.110;8.468;2022-11-25T06:47:20;6.70;99.90
22065;DHT22;11197;53.110;8.468;2022-11-25T06:49:45;6.70;99.90
22065;DHT22;11197;53.110;8.468;2022-11-25T06:52:11;6.70;99.90
22065;DHT22;11197;53.110;8.468;2022-11-25T06:54:37;6.70;99.90
22065;DHT22;11197;53.110;8.468;2022-11-25T06:57:07;6.70;99.90
22065;DHT22;11197;53.110;8.468;2022-11-25T06:59:33;6.70;99.90
22065;DHT22;11197;53.110;8.468;2022-11-25T07:01:59;6.70;99.90
22065;DHT22;11197;53.110;8.468;2022-11-25T07:04:25;6.70;99.90
22065;DHT22;11197;53.110;8.468;2022-11-25T07:06:51;6.70;99.90
22065;DHT22;11197;53.110;8.468;2022-11-25T07:09:17;6.70;99.90
22065;DHT22;11197;53.110;8.468;2022-11-25T07:11:44;6.70;99.90
22065;DHT22;11197;53.110;8.468;2022-11-25T07:14:12;6.80;99.90
22065;DHT22;11197;53.110;8.468;2022-11-25T07:16:41;6.80;99.90
22065;DHT22;11197;53.110;8.468;2022-11-25T07:19:07;6.80;99.90
22065;DHT22;11197;53.110;8.468;2022-11-25T07:21:33;6.80;99.90
22065;DHT22;11197;53.110;8.468;2022-11-25T07:24:03;6.80;99.90
22065;DHT22;11197;53.110;8.468;2022-11-25T07:26:32;6.80;99.90
22065;DHT22;11197;53.110;8.468;2022-11-25T07:29:01;6.80;99.90
22065;DHT22;11197;53.110;8.468;2022-11-25T07:31:33;6.80;99.90
22065;DHT22;11197;53.110;8.468;2022-11-25T07:34:10;6.80;99.90
22065;DHT22;11197;53.110;8.468;2022-11-25T07:36:36;6.80;99.90
22065;DHT22;11197;53.110;8.468;2022-11-25T07:39:09;6.80;99.90
22065;DHT22;11197;53.110;8.468;2022-11-25T07:41:36;6.80;99.90
22065;DHT22;11197;53.110;8.468;2022-11-25T07:44:04;6.80;99.90
22065;DHT22;11197;53.110;8.468;2022-11-25T07:46:44;6.80;99.90
22065;DHT22;11197;53.110;8.468;2022-11-25T07:49:14;6.80;99.90
22065;DHT22;11197;53.110;8.468;2022-11-25T07:51:45;6.80;99.90
22065;DHT22;11197;53.110;8.468;2022-11-25T07:54:12;6.80;99.90
22065;DHT22;11197;53.110;8.468;2022-11-25T07:56:41;6.90;99.90
22065;DHT22;11197;53.110;8.468;2022-11-25T07:59:13;6.90;99.90
22065;DHT22;11197;53.110;8.468;2022-11-25T08:01:41;6.90;99.90
22065;DHT22;11197;53.110;8.468;2022-11-25T08:04:08;6.90;99.90
22065;DHT22;11197;53.110;8.468;2022-11-25T08:06:41;6.90;99.90
22065;DHT22;11197;53.110;8.468;2022-11-25T08:09:12;6.90;99.90
22065;DHT22;11197;53.110;8.468;2022-11-25T08:11:38;6.90;99.90
22065;DHT22;11197;53.110;8.468;2022-11-25T08:14:05;6.90;99.90
22065;DHT22;11197;53.110;8.468;2022-11-25T08:16:32;6.90;99.90
22065;DHT22;11197;53.110;8.468;2022-11-25T08:19:01;6.90;99.90
22065;DHT22;11197;53.110;8.468;2022-11-25T08:21:27;6.90;99.90
22065;DHT22;11197;53.110;8.468;2022-11-25T08:23:54;6.90;99.90
22065;DHT22;11197;53.110;8.468;2022-11-25T08:26:25;6.90;99.90
22065;DHT22;11197;53.110;8.468;2022-11-25T08:28:52;7.00;99.90
22065;DHT22;11197;53.110;8.468;2022-11-25T08:31:22;7.00;99.90
22065;DHT22;11197;53.110;8.468;2022-11-25T08:33:50;7.00;99.90
22065;DHT22;11197;53.110;8.468;2022-11-25T08:36:17;7.00;99.90
22065;DHT22;11197;53.110;8.468;2022-11-25T08:38:45;7.00;99.90
22065;DHT22;11197;53.110;8.468;2022-11-25T08:41:14;7.00;99.90
22065;DHT22;11197;53.110;8.468;2022-11-25T08:43:41;7.00;99.90
22065;DHT22;11197;53.110;8.468;2022-11-25T08:46:17;7.00;99.90
22065;DHT22;11197;53.110;8.468;2022-11-25T08:48:43;7.10;99.90
22065;DHT22;11197;53.110;8.468;2022-11-25T08:51:13;7.10;99.90
22065;DHT22;11197;53.110;8.468;2022-11-25T08:53:39;7.10;99.90
22065;DHT22;11197;53.110;8.468;2022-11-25T08:56:07;7.10;99.90
22065;DHT22;11197;53.110;8.468;2022-11-25T08:58:34;7.10;99.90
22065;DHT22;11197;53.110;8.468;2022-11-25T09:01:00;7.20;99.90
22065;DHT22;11197;53.110;8.468;2022-11-25T09:03:27;7.20;99.90
22065;DHT22;11197;53.110;8.468;2022-11-25T09:05:53;7.20;99.90
22065;DHT22;11197;53.110;8.468;2022-11-25T09:08:19;7.20;99.90
22065;DHT22;11197;53.110;8.468;2022-11-25T09:10:46;7.20;99.90
22065;DHT22;11197;53.110;8.468;2022-11-25T09:13:12;7.20;99.90
22065;DHT22;11197;53.110;8.468;2022-11-25T09:15:39;7.20;99.90
22065;DHT22;11197;53.110;8.468;2022-11-25T09:18:08;7.30;99.90
22065;DHT22;11197;53.110;8.468;2022-11-25T09:20:37;7.30;99.90
22065;DHT22;11197;53.110;8.468;2022-11-25T09:23:04;7.30;99.90
22065;DHT22;11197;53.110;8.468;2022-11-25T09:25:31;7.30;99.90
22065;DHT22;11197;53.110;8.468;2022-11-25T09:27:58;7.40;99.90
22065;DHT22;11197;53.110;8.468;2022-11-25T09:30:25;7.40;99.90
22065;DHT22;11197;53.110;8.468;2022-11-25T09:32:53;7.40;99.90
22065;DHT22;11197;53.110;8.468;2022-11-25T09:35:19;7.40;99.90
22065;DHT22;11197;53.110;8.468;2022-11-25T09:37:45;7.40;99.90
22065;DHT22;11197;53.110;8.468;2022-11-25T09:40:32;7.40;99.90
22065;DHT22;11197;53.110;8.468;2022-11-25T09:46:26;7.50;99.90
22065;DHT22;11197;53.110;8.468;2022-11-25T09:54:44;7.70;99.90
22065;DHT22;11197;53.110;8.468;2022-11-25T10:00:38;7.70;99.90
22065;DHT22;11197;53.110;8.468;2022-11-25T10:05:56;7.80;99.90
22065;DHT22;11197;53.110;8.468;2022-11-25T10:08:29;7.80;99.90
22065;DHT22;11197;53.110;8.468;2022-11-25T10:16:31;7.80;99.90
22065;DHT22;11197;53.110;8.468;2022-11-25T10:19:04;7.90;99.90
22065;DHT22;11197;53.110;8.468;2022-11-25T10:21:35;7.90;99.90
22065;DHT22;11197;53.110;8.468;2022-11-25T10:24:03;8.00;99.90
22065;DHT22;11197;53.110;8.468;2022-11-25T10:26:36;8.00;99.90
22065;DHT22;11197;53.110;8.468;2022-11-25T10:29:27;8.00;99.90
22065;DHT22;11197;53.110;8.468;2022-11-25T10:32:08;8.00;99.90
22065;DHT22;11197;53.110;8.468;2022-11-25T10:34:43;8.00;99.90
22065;DHT22;11197;53.110;8.468;2022-11-25T10:37:34;8.10;99.90
22065;DHT22;11197;53.110;8.468;2022-11-25T10:40:03;8.10;99.90
22065;DHT22;11197;53.110;8.468;2022-11-25T10:42:29;8.10;99.90
22065;DHT22;11197;53.110;8.468;2022-11-25T10:44:57;8.10;99.90
22065;DHT22;11197;53.110;8.468;2022-11-25T10:50:15;8.20;99.90
22065;DHT22;11197;53.110;8.468;2022-11-25T10:52:47;8.20;99.90
22065;DHT22;11197;53.110;8.468;2022-11-25T10:55:19;8.20;99.90
22065;DHT22;11197;53.110;8.468;2022-11-25T10:57:46;8.20;99.90
22065;DHT22;11197;53.110;8.468;2022-11-25T11:00:31;8.20;99.90
22065;DHT22;11197;53.110;8.468;2022-11-25T11:03:00;8.30;99.90
22065;DHT22;11197;53.110;8.468;2022-11-25T11:05:46;8.40;99.90
22065;DHT22;11197;53.110;8.468;2022-11-25T11:08:17;8.40;99.90
22065;DHT22;11197;53.110;8.468;2022-11-25T11:10:45;8.50;99.90
22065;DHT22;11197;53.110;8.468;2022-11-25T11:13:19;8.50;99.90
22065;DHT22;11197;53.110;8.468;2022-11-25T11:15:46;8.50;99.90
22065;DHT22;11197;53.110;8.468;2022-11-25T11:18:39;8.50;99.90
22065;DHT22;11197;53.110;8.468;2022-11-25T11:21:19;8.50;99.90
22065;DHT22;11197;53.110;8.468;2022-11-25T11:23:49;8.60;99.90
22065;DHT22;11197;53.110;8.468;2022-11-25T11:26:34;8.60;99.90
22065;DHT22;11197;53.110;8.468;2022-11-25T11:31:33;8.60;99.90
22065;DHT22;11197;53.110;8.468;2022-11-25T11:39:44;8.70;99.90
22065;DHT22;11197;53.110;8.468;2022-11-25T11:51:38;8.80;99.90
22065;DHT22;11197;53.110;8.468;2022-11-25T11:56:59;8.90;99.90
22065;DHT22;11197;53.110;8.468;2022-11-25T12:07:46;9.00;99.90
22065;DHT22;11197;53.110;8.468;2022-11-25T12:12:48;9.00;99.90
22065;DHT22;11197;53.110;8.468;2022-11-25T12:17:59;9.00;99.90
22065;DHT22;11197;53.110;8.468;2022-11-25T12:20:31;9.10;99.90
22065;DHT22;11197;53.110;8.468;2022-11-25T12:23:12;9.10;99.90
22065;DHT22;11197;53.110;8.468;2022-11-25T12:25:41;9.10;99.90
22065;DHT22;11197;53.110;8.468;2022-11-25T12:28:27;9.10;99.90
22065;DHT22;11197;53.110;8.468;2022-11-25T12:31:15;9.20;99.90
22065;DHT22;11197;53.110;8.468;2022-11-25T12:33:51;9.20;99.90
22065;DHT22;11197;53.110;8.468;2022-11-25T12:36:31;9.20;99.90
22065;DHT22;11197;53.110;8.468;2022-11-25T12:39:03;9.30;99.90
22065;DHT22;11197;53.110;8.468;2022-11-25T12:44:21;9.30;99.90
22065;DHT22;11197;53.110;8.468;2022-11-25T12:46:49;9.30;99.90
22065;DHT22;11197;53.110;8.468;2022-11-25T13:08:56;9.40;99.90
22065;DHT22;11197;53.110;8.468;2022-11-25T13:16:58;9.50;99.90
22065;DHT22;11197;53.110;8.468;2022-11-25T13:19:24;9.50;99.90
22065;DHT22;11197;53.110;8.468;2022-11-25T13:22:05;9.50;99.90
22065;DHT22;11197;53.110;8.468;2022-11-25T13:24:52;9.50;99.90
22065;DHT22;11197;53.110;8.468;2022-11-25T13:30:33;9.50;99.90
22065;DHT22;11197;53.110;8.468;2022-11-25T13:32:51;9.50;99.90
22065;DHT22;11197;53.110;8.468;2022-11-25T13:37:47;9.40;99.90
22065;DHT22;11197;53.110;8.468;2022-11-25T13:42:56;9.50;99.90
22065;DHT22;11197;53.110;8.468;2022-11-25T13:48:02;9.50;99.90
22065;DHT22;11197;53.110;8.468;2022-11-25T13:50:29;9.40;99.90
22065;DHT22;11197;53.110;8.468;2022-11-25T13:53:31;9.50;99.90
22065;DHT22;11197;53.110;8.468;2022-11-25T14:01:39;9.50;99.90
22065;DHT22;11197;53.110;8.468;2022-11-25T14:04:14;9.50;99.90
22065;DHT22;11197;53.110;8.468;2022-11-25T14:12:30;9.50;99.90
22065;DHT22;11197;53.110;8.468;2022-11-25T14:15:03;9.50;99.90
22065;DHT22;11197;53.110;8.468;2022-11-25T14:20:54;9.50;99.90
22065;DHT22;11197;53.110;8.468;2022-11-25T14:26:09;9.60;99.90
22065;DHT22;11197;53.110;8.468;2022-11-25T14:28:41;9.60;99.90
22065;DHT22;11197;53.110;8.468;2022-11-25T14:31:23;9.60;99.90
22065;DHT22;11197;53.110;8.468;2022-11-25T14:34:00;9.60;99.90
22065;DHT22;11197;53.110;8.468;2022-11-25T14:36:34;9.60;99.90
22065;DHT22;11197;53.110;8.468;2022-11-25T14:39:05;9.60;99.90
22065;DHT22;11197;53.110;8.468;2022-11-25T14:41:42;9.60;99.90
22065;DHT22;11197;53.110;8.468;2022-11-25T14:44:17;9.50;99.90
22065;DHT22;11197;53.110;8.468;2022-11-25T14:46:55;9.50;99.90
22065;DHT22;11197;53.110;8.468;2022-11-25T14:49:23;9.50;99.90
22065;DHT22;11197;53.110;8.468;2022-11-25T14:51:50;9.50;99.90
22065;DHT22;11197;53.110;8.468;2022-11-25T14:54:17;9.50;99.90
22065;DHT22;11197;53.110;8.468;2022-11-25T14:56:43;9.40;99.90
22065;DHT22;11197;53.110;8.468;2022-11-25T14:59:12;9.40;99.90
22065;DHT22;11197;53.110;8.468;2022-11-25T15:01:39;9.40;99.90
22065;DHT22;11197;53.110;8.468;2022-11-25T15:04:18;9.40;99.90
22065;DHT22;11197;53.110;8.468;2022-11-25T15:06:55;9.40;99.90
22065;DHT22;11197;53.110;8.468;2022-11-25T15:09:36;9.30;99.90
22065;DHT22;11197;53.110;8.468;2022-11-25T15:12:05;9.30;99.90
22065;DHT22;11197;53.110;8.468;2022-11-25T15:14:38;9.30;99.90
22065;DHT22;11197;53.110;8.468;2022-11-25T15:17:29;9.20;99.90
22065;DHT22;11197;53.110;8.468;2022-11-25T15:20:02;9.20;99.90
22065;DHT22;11197;53.110;8.468;2022-11-25T15:22:28;9.20;99.90
22065;DHT22;11197;53.110;8.468;2022-11-25T15:25:06;9.20;99.90
22065;DHT22;11197;53.110;8.468;2022-11-25T15:27:32;9.10;99.90
22065;DHT22;11197;53.110;8.468;2022-11-25T15:29:58;9.10;99.90
22065;DHT22;11197;53.110;8.468;2022-11-25T15:32:30;9.10;99.90
22065;DHT22;11197;53.110;8.468;2022-11-25T15:34:59;9.00;99.90
22065;DHT22;11197;53.110;8.468;2022-11-25T15:37:25;9.10;99.90
22065;DHT22;11197;53.110;8.468;2022-11-25T15:42:58;9.00;99.90
22065;DHT22;11197;53.110;8.468;2022-11-25T15:45:29;9.00;99.90
22065;DHT22;11197;53.110;8.468;2022-11-25T15:47:58;9.00;99.90
22065;DHT22;11197;53.110;8.468;2022-11-25T15:50:26;9.00;99.90
22065;DHT22;11197;53.110;8.468;2022-11-25T15:52:58;9.00;99.90
22065;DHT22;11197;53.110;8.468;2022-11-25T15:55:34;9.00;99.90
22065;DHT22;11197;53.110;8.468;2022-11-25T15:58:30;8.90;99.90
22065;DHT22;11197;53.110;8.468;2022-11-25T16:01:21;8.90;99.90
22065;DHT22;11197;53.110;8.468;2022-11-25T16:03:47;8.90;99.90
22065;DHT22;11197;53.110;8.468;2022-11-25T16:09:01;8.90;99.90
22065;DHT22;11197;53.110;8.468;2022-11-25T16:11:29;8.90;99.90
22065;DHT22;11197;53.110;8.468;2022-11-25T16:14:27;8.80;99.90
22065;DHT22;11197;53.110;8.468;2022-11-25T16:17:09;8.80;99.90
22065;DHT22;11197;53.110;8.468;2022-11-25T16:19:41;8.80;99.90
22065;DHT22;11197;53.110;8.468;2022-11-25T16:22:15;8.80;99.90
22065;DHT22;11197;53.110;8.468;2022-11-25T16:24:49;8.70;99.90
22065;DHT22;11197;53.110;8.468;2022-11-25T16:27:21;8.70;99.90
22065;DHT22;11197;53.110;8.468;2022-11-25T16:32:19;8.70;99.90
22065;DHT22;11197;53.110;8.468;2022-11-25T16:34:45;8.70;99.90
22065;DHT22;11197;53.110;8.468;2022-11-25T16:37:11;8.70;99.90
22065;DHT22;11197;53.110;8.468;2022-11-25T16:39:37;8.70;99.90
22065;DHT22;11197;53.110;8.468;2022-11-25T16:42:04;8.70;99.90
22065;DHT22;11197;53.110;8.468;2022-11-25T16:44:32;8.70;99.90
22065;DHT22;11197;53.110;8.468;2022-11-25T16:46:59;8.70;99.90
22065;DHT22;11197;53.110;8.468;2022-11-25T16:49:26;8.70;99.90
22065;DHT22;11197;53.110;8.468;2022-11-25T16:51:54;8.70;99.90
22065;DHT22;11197;53.110;8.468;2022-11-25T16:54:21;8.70;99.90
22065;DHT22;11197;53.110;8.468;2022-11-25T16:56:50;8.70;99.90
22065;DHT22;11197;53.110;8.468;2022-11-25T16:59:29;8.70;99.90
22065;DHT22;11197;53.110;8.468;2022-11-25T17:01:58;8.70;99.90
22065;DHT22;11197;53.110;8.468;2022-11-25T17:04:24;8.70;99.90
22065;DHT22;11197;53.110;8.468;2022-11-25T17:06:54;8.70;99.90
22065;DHT22;11197;53.110;8.468;2022-11-25T17:09:20;8.70;99.90
22065;DHT22;11197;53.110;8.468;2022-11-25T17:11:49;8.70;99.90
22065;DHT22;11197;53.110;8.468;2022-11-25T17:14:37;8.70;99.90
22065;DHT22;11197;53.110;8.468;2022-11-25T17:17:04;8.70;99.90
22065;DHT22;11197;53.110;8.468;2022-11-25T17:19:30;8.70;99.90
22065;DHT22;11197;53.110;8.468;2022-11-25T17:21:56;8.70;99.90
22065;DHT22;11197;53.110;8.468;2022-11-25T17:24:23;8.80;99.90
22065;DHT22;11197;53.110;8.468;2022-11-25T17:26:57;8.80;99.90
22065;DHT22;11197;53.110;8.468;2022-11-25T17:29:34;8.80;99.90
22065;DHT22;11197;53.110;8.468;2022-11-25T17:32:03;8.80;99.90
22065;DHT22;11197;53.110;8.468;2022-11-25T17:34:30;8.90;99.90
22065;DHT22;11197;53.110;8.468;2022-11-25T17:36:56;8.90;99.90
22065;DHT22;11197;53.110;8.468;2022-11-25T17:39:22;8.90;99.90
22065;DHT22;11197;53.110;8.468;2022-11-25T17:41:49;8.90;99.90
22065;DHT22;11197;53.110;8.468;2022-11-25T17:44:26;8.90;99.90
22065;DHT22;11197;53.110;8.468;2022-11-25T17:46:54;8.90;99.90
22065;DHT22;11197;53.110;8.468;2022-11-25T17:49:21;8.90;99.90
22065;DHT22;11197;53.110;8.468;2022-11-25T17:51:49;8.90;99.90
22065;DHT22;11197;53.110;8.468;2022-11-25T17:54:15;8.90;99.90
22065;DHT22;11197;53.110;8.468;2022-11-25T17:56:43;8.90;99.90
22065;DHT22;11197;53.110;8.468;2022-11-25T17:59:16;8.90;99.90
22065;DHT22;11197;53.110;8.468;2022-11-25T18:01:42;9.00;99.90
22065;DHT22;11197;53.110;8.468;2022-11-25T18:04:23;9.00;99.90
22065;DHT22;11197;53.110;8.468;2022-11-25T18:06:50;8.90;99.90
22065;DHT22;11197;53.110;8.468;2022-11-25T18:09:16;9.00;99.90
22065;DHT22;11197;53.110;8.468;2022-11-25T18:11:47;9.00;99.90
22065;DHT22;11197;53.110;8.468;2022-11-25T18:14:29;9.00;99.90
22065;DHT22;11197;53.110;8.468;2022-11-25T18:16:57;9.00;99.90